TFFRTNCM

Guest
Details From TFFR - Pointe a Pitre Le Raizet
To TNCM - St Maarten - Princess Juliana Intl
Flight Number -
Tags decoded
Created
Modified
Stats Distance 191 nm / 353 km
Max Altitude 0 ft / 0 m
Waypoints 7
Social Downloads 4
Likes 0
Share

Download

Looking for another format? Having issues loading an existing format? Contact us
Advertisement - Login to hide

Notes

Requested: TFFR GOUDA ULUBA PJM09 PJM07 PJM02 TNCM

Route

TFFR GOUDA ULUBA PJM09 PJM07 PJM02 TNCM

ID Type Via Altitude (ft/m) Position (lat/lon) Dist (leg/tot) Name
O TFFR APT - 0 / 0 16.26531 / -61.53181 - / 0 nm Pointe a Pitre Le Raizet
GOUDA FIX - 0 / 0 17.93402 / -63.66667 158 / 158 nm
ULUBA FIX - 0 / 0 18.02055 / -63.29221 22 / 180 nm
PJM09 FIX - 0 / 0 18.02230 / -63.27493 0 / 181 nm
PJM07 FIX - 0 / 0 18.02582 / -63.24012 1 / 183 nm
PJM02 FIX - 0 / 0 18.03461 / -63.15309 4 / 188 nm
O TNCM APT - 0 / 0 18.04089 / -63.10897 2 / 190 nm St Maarten - Princess Juliana Intl

Altitude Profile

Advertisement - Login to hide

Weather


0- 5 10 15 20 25 30 35+ Temperature / °C

Clouds and Precipitation
Forecast for 2020-10-22 12:00 UTC. Updated 2 hours ago

Ground ~20,000 ft ~40,000 ft Winds

TFFR

Details ICAO TFFR (PTP)
Name Pointe-A-Pitre Intl
Region France (Guadeloupe, Martinique, Saint Barthélemy, Saint Martin)
Timezone America/Guadeloupe (UTC-4.0)
Stats Elevation 35 ft / 11 m (AMSL)
Location 16.265500° -61.533000°
Runways 1
Magnetic Variation 14.929° W

METAR

TFFR 221100Z AUTO 12002KT CAVOK 26/25 Q1014 BECMG 12012KT

Decode

TAF

TAF TFFR 220500Z 2206/2306 VRB03KT 9999 SCT025 BECMG 2210/2212 12012KT PROB30 TEMPO 2217/2221 4000 SHRA SCT025TCU TEMPO 2304/2306 3000 SHRA SCT012CB BKN015TCU

Decode

Departure Runways

ID Width Length Bearing (true/mag) Surface Threshold Overrun Markings Lighting
12 148 ft / 45 m 10,673 ft / 3,253 m 100.87° / 115.80° ASPHALT 1,309 ft / 399 m 98 ft / 30 m PREC-APP CENTERLINE EDGE THRESHOLD TDZ REIL-OMNI
30 148 ft / 45 m 10,673 ft / 3,253 m 280.87° / 295.80° ASPHALT 978 ft / 298 m 853 ft / 260 m APP CENTERLINE EDGE THRESHOLD TDZ REIL-OMNI

TNCM

Details ICAO TNCM (SXM)
Name Princess Juliana Intl
Region Caribbean Netherlands, Aruba, Curaçao, Sint Maarten
Timezone Unknown
Stats Elevation 14 ft / 4 m (AMSL)
Location 18.040900° -63.108900°
Runways 1
Magnetic Variation 14.403° W

METAR

TNCM 221100Z 12007KT 9999 FEW018 29/25 Q1015 NOSIG

Decode

TAF

TNCM 220537Z 2206/2306 VRB05KT P6SM FEW018 FM221400 13010KT P6SM SCT018

Decode

Destination Runways

ID Width Length Bearing (true/mag) Surface Threshold Overrun Markings Lighting
10 148 ft / 45 m 7,553 ft / 2,302 m 81.44° / 95.84° ASPHALT 331 ft / 101 m 164 ft / 50 m PREC-APP EDGE THRESHOLD REIL-OMNI
28 148 ft / 45 m 7,553 ft / 2,302 m 261.45° / 275.85° ASPHALT 0 ft / 0 m 200 ft / 61 m APP EDGE THRESHOLD

Popular Alternatives